Time;durP1;ratioP1;P1;durP2;ratioP2;P2;SDS_P1;SDS_P2;PMS_P1;PMS_P2;Temp;Humidity;BMP_temperature;BMP_pressure;BME280_temperature;BME280_humidity;BME280_pressure;Samples;Min_cycle;Max_cycle;Signal;HPM_P1;HPM_P2
2023/05/01 00:02:00;;;;;;;;;;;;;;;12.22;65.55;101709.25;5069546;28;19916;-66
2023/05/01 00:04:25;;;;;;;;;;;;;;;12.22;65.51;101711.91;5064585;28;19994;-66
2023/05/01 00:06:51;;;;;;;;;;;;;;;12.22;65.32;101701.25;5063145;28;19917;-65
2023/05/01 00:09:17;;;;;;;;;;;;;;;12.23;65.41;101694.94;5059523;28;19960;-65
2023/05/01 00:11:42;;;;;;;;;;;;;;;12.22;65.48;101694.09;5061484;28;19927;-66
2023/05/01 00:14:07;;;;;;;;;;;;;;;12.21;65.57;101692.44;5067151;28;19920;-65
2023/05/01 00:16:34;;;;;;;;;;;;;;;12.20;66.05;101700.59;5064794;28;19917;-65
2023/05/01 00:18:59;;;;;;;;;;;;;;;12.20;65.92;101685.44;5064211;28;19921;-65
2023/05/01 00:21:24;;;;;;;;;;;;;;;12.20;66.03;101682.78;5067219;28;19965;-65
2023/05/01 00:23:50;;;;;;;;;;;;;;;12.22;66.27;101682.59;5063503;28;20383;-65
2023/05/01 00:26:15;;;;;;;;;;;;;;;12.22;66.09;101675.47;5056622;28;19923;-65
2023/05/01 00:28:40;;;;;;;;;;;;;;;12.22;65.86;101671.97;5064509;28;19959;-66
2023/05/01 00:31:05;;;;;;;;;;;;;;;12.21;65.92;101675.63;5066861;28;20396;-65
2023/05/01 00:33:30;;;;;;;;;;;;;;;12.18;66.06;101666.13;5065020;28;19919;-65
2023/05/01 00:35:56;;;;;;;;;;;;;;;12.18;66.06;101662.63;5064191;28;19936;-65
2023/05/01 00:38:22;;;;;;;;;;;;;;;12.16;66.00;101653.97;5064854;28;20305;-65
2023/05/01 00:40:48;;;;;;;;;;;;;;;12.15;66.33;101654.97;5064683;28;19916;-65
2023/05/01 00:43:13;;;;;;;;;;;;;;;12.14;66.14;101653.25;5060848;28;19924;-65
2023/05/01 00:45:42;;;;;;;;;;;;;;;12.13;66.19;101656.94;5063173;28;20378;-65
2023/05/01 00:48:08;;;;;;;;;;;;;;;12.14;66.51;101656.75;5061982;28;19924;-65
2023/05/01 00:50:33;;;;;;;;;;;;;;;12.11;66.60;101646.44;5073259;28;19925;-65
2023/05/01 00:52:59;;;;;;;;;;;;;;;12.11;66.72;101646.44;5065156;28;19960;-65
2023/05/01 00:55:25;;;;;;;;;;;;;;;12.09;66.69;101637.78;5058676;28;20015;-65
2023/05/01 00:57:50;;;;;;;;;;;;;;;12.11;66.67;101641.09;5071220;28;19981;-65
2023/05/01 01:00:18;;;;;;;;;;;;;;;12.10;66.40;101634.94;5063475;28;19932;-65
2023/05/01 01:02:43;;;;;;;;;;;;;;;12.14;66.58;101637.28;5067194;28;19927;-65
2023/05/01 01:05:08;;;;;;;;;;;;;;;12.15;66.56;101628.34;5063340;28;19916;-65
2023/05/01 01:07:54;;;;;;;;;;;;;;;12.17;66.77;101631.66;5067874;28;20467;-65
2023/05/01 01:10:28;;;;;;;;;;;;;;;12.17;66.54;101621.03;5054134;28;20037;-65
2023/05/01 01:13:01;;;;;;;;;;;;;;;12.15;66.71;101621.19;5059495;28;19920;-65
2023/05/01 01:15:33;;;;;;;;;;;;;;;12.17;66.47;101623.69;5060479;28;20544;-65
2023/05/01 01:18:15;;;;;;;;;;;;;;;12.18;66.39;101620.03;5060096;28;20377;-65
2023/05/01 01:20:41;;;;;;;;;;;;;;;12.19;66.62;101616.38;5067608;28;19919;-65
2023/05/01 01:23:18;;;;;;;;;;;;;;;12.18;66.85;101622.69;5056516;28;19917;-65
2023/05/01 01:26:06;;;;;;;;;;;;;;;12.14;66.53;101616.81;5063075;28;20614;-65
2023/05/01 01:28:31;;;;;;;;;;;;;;;12.10;66.86;101608.31;5033393;28;19967;-65
2023/05/01 01:31:07;;;;;;;;;;;;;;;12.09;66.97;101611.16;5066778;28;19938;-65
2023/05/01 01:33:33;;;;;;;;;;;;;;;12.05;67.11;101607.16;5058724;28;19920;-65
2023/05/01 01:36:06;;;;;;;;;;;;;;;12.03;66.89;101602.00;5065968;28;19925;-65
2023/05/01 01:39:00;;;;;;;;;;;;;;;12.02;66.63;101595.00;5062878;28;19939;-65
2023/05/01 01:41:29;;;;;;;;;;;;;;;12.02;67.42;101588.84;5061595;28;20007;-65
2023/05/01 01:44:00;;;;;;;;;;;;;;;12.00;67.25;101585.50;5061549;28;20696;-65
2023/05/01 01:46:25;;;;;;;;;;;;;;;11.99;67.53;101581.19;5059907;28;19917;-65
2023/05/01 01:48:52;;;;;;;;;;;;;;;11.99;67.45;101583.84;5061310;28;19931;-65
2023/05/01 01:51:20;;;;;;;;;;;;;;;11.98;67.51;101575.03;5069027;28;19913;-65
2023/05/01 01:53:49;;;;;;;;;;;;;;;11.97;67.72;101573.34;5060366;28;19959;-65
2023/05/01 01:56:16;;;;;;;;;;;;;;;11.97;67.79;101575.19;5060538;28;19958;-65
2023/05/01 01:58:43;;;;;;;;;;;;;;;11.95;67.62;101564.69;5063428;28;19924;-65
2023/05/01 02:01:09;;;;;;;;;;;;;;;11.94;67.59;101567.53;5065696;28;19916;-65
2023/05/01 02:03:34;;;;;;;;;;;;;;;11.93;67.83;101563.19;5061053;28;19924;-65
2023/05/01 02:06:00;;;;;;;;;;;;;;;11.93;67.74;101566.69;5058811;28;19924;-65
2023/05/01 02:08:28;;;;;;;;;;;;;;;11.92;68.11;101557.03;5062489;28;19923;-65
2023/05/01 02:10:58;;;;;;;;;;;;;;;11.91;68.43;101552.72;5055590;28;19932;-65
2023/05/01 02:13:24;;;;;;;;;;;;;;;11.93;68.46;101549.88;5053260;28;20308;-65
2023/05/01 02:15:50;;;;;;;;;;;;;;;11.90;68.73;101551.06;5063341;28;20015;-65
2023/05/01 02:18:16;;;;;;;;;;;;;;;11.90;68.71;101547.56;5060413;28;19999;-65
2023/05/01 02:20:42;;;;;;;;;;;;;;;11.89;68.57;101548.56;5060066;28;19928;-65
2023/05/01 02:23:08;;;;;;;;;;;;;;;11.90;68.45;101544.91;5064607;28;19923;-65
2023/05/01 02:25:35;;;;;;;;;;;;;;;11.90;68.70;101542.22;5066981;28;19921;-66
2023/05/01 02:28:02;;;;;;;;;;;;;;;11.85;69.01;101540.03;5059833;28;19913;-65
2023/05/01 02:30:27;;;;;;;;;;;;;;;11.83;69.08;101539.38;5063468;28;19967;-65
2023/05/01 02:32:52;;;;;;;;;;;;;;;11.81;69.25;101536.03;5059478;28;20394;-65
2023/05/01 02:35:17;;;;;;;;;;;;;;;11.81;69.04;101537.84;5063119;28;19943;-65
2023/05/01 02:37:43;;;;;;;;;;;;;;;11.80;69.00;101531.69;5058535;28;19920;-65
2023/05/01 02:40:10;;;;;;;;;;;;;;;11.79;69.08;101527.38;5066253;28;19923;-65
2023/05/01 02:42:36;;;;;;;;;;;;;;;11.78;69.24;101529.22;5061243;28;20398;-65
2023/05/01 02:45:06;;;;;;;;;;;;;;;11.78;69.44;101529.22;5058768;28;20015;-65
2023/05/01 02:47:33;;;;;;;;;;;;;;;11.77;69.93;101516.03;5061631;28;19917;-65
2023/05/01 02:49:59;;;;;;;;;;;;;;;11.74;69.64;101513.69;5061851;28;19920;-65
2023/05/01 02:52:24;;;;;;;;;;;;;;;11.71;69.68;101511.38;5062904;28;19948;-65
2023/05/01 02:54:50;;;;;;;;;;;;;;;11.71;69.91;101506.88;5067391;28;19916;-65
2023/05/01 02:57:19;;;;;;;;;;;;;;;11.71;69.95;101503.38;5069116;28;19913;-65
2023/05/01 02:59:44;;;;;;;;;;;;;;;11.70;69.84;101502.53;5065543;28;19924;-65
2023/05/01 03:02:09;;;;;;;;;;;;;;;11.68;69.80;101499.22;5061190;28;19917;-65
2023/05/01 03:04:34;;;;;;;;;;;;;;;11.68;69.90;101501.03;5057825;28;20386;-65
2023/05/01 03:07:00;;;;;;;;;;;;;;;11.65;70.07;101502.19;5064888;28;19919;-65
2023/05/01 03:09:25;;;;;;;;;;;;;;;11.66;69.89;101497.72;5058668;28;19920;-65
2023/05/01 03:11:50;;;;;;;;;;;;;;;11.64;69.57;101497.03;5054507;28;19920;-65
2023/05/01 03:14:15;;;;;;;;;;;;;;;11.62;69.82;101496.38;5064746;28;20512;-65
2023/05/01 03:16:41;;;;;;;;;;;;;;;11.58;70.15;101492.38;5057103;28;20346;-65
2023/05/01 03:19:06;;;;;;;;;;;;;;;11.55;70.27;101482.84;5065779;28;19920;-65
2023/05/01 03:21:32;;;;;;;;;;;;;;;11.50;70.20;101479.84;5059198;28;20378;-65
2023/05/01 03:23:57;;;;;;;;;;;;;;;11.47;70.48;101475.69;5061354;28;19924;-65
2023/05/01 03:26:23;;;;;;;;;;;;;;;11.46;70.58;101474.03;5063870;28;19925;-65
2023/05/01 03:28:48;;;;;;;;;;;;;;;11.45;70.75;101472.38;5062000;28;19994;-65
2023/05/01 03:31:13;;;;;;;;;;;;;;;11.46;70.75;101473.19;5067991;28;19924;-66
2023/05/01 03:33:39;;;;;;;;;;;;;;;11.45;70.73;101467.03;5061791;28;19916;-66
2023/05/01 03:36:04;;;;;;;;;;;;;;;11.43;70.34;101462.88;5060850;28;19916;-65
2023/05/01 03:38:30;;;;;;;;;;;;;;;11.41;70.31;101463.03;5060857;28;19968;-65
2023/05/01 03:40:55;;;;;;;;;;;;;;;11.41;70.67;101464.88;5066740;28;19917;-65
2023/05/01 03:43:21;;;;;;;;;;;;;;;11.39;70.45;101457.06;5067102;28;19923;-66
2023/05/01 03:45:46;;;;;;;;;;;;;;;11.34;70.67;101450.56;5057782;28;19913;-65
2023/05/01 03:48:12;;;;;;;;;;;;;;;11.38;70.96;101460.72;5057710;28;20394;-65
2023/05/01 03:50:37;;;;;;;;;;;;;;;11.35;70.56;101450.41;5061069;28;19922;-65
2023/05/01 03:53:03;;;;;;;;;;;;;;;11.36;70.77;101453.88;5061669;28;19916;-65
2023/05/01 03:55:28;;;;;;;;;;;;;;;11.34;70.58;101456.72;5061849;28;19923;-65
2023/05/01 03:57:53;;;;;;;;;;;;;;;11.33;70.67;101446.25;5056729;28;19917;-66
2023/05/01 04:00:19;;;;;;;;;;;;;;;11.31;70.82;101443.75;5052249;28;19943;-65
2023/05/01 04:02:44;;;;;;;;;;;;;;;11.28;70.86;101444.06;5056630;28;19927;-65
2023/05/01 04:05:09;;;;;;;;;;;;;;;11.26;70.56;101448.69;5056290;28;20386;-65
2023/05/01 04:07:34;;;;;;;;;;;;;;;11.25;70.82;101448.84;5060149;28;19912;-65
2023/05/01 04:09:59;;;;;;;;;;;;;;;11.23;70.86;101445.50;5058866;28;19913;-65
2023/05/01 04:12:25;;;;;;;;;;;;;;;11.23;70.94;101442.84;5067353;28;19917;-65
2023/05/01 04:14:50;;;;;;;;;;;;;;;11.23;70.92;101441.03;5051658;28;19920;-65
2023/05/01 04:17:15;;;;;;;;;;;;;;;11.23;70.39;101450.81;5061923;28;19913;-65
2023/05/01 04:19:40;;;;;;;;;;;;;;;11.24;70.65;101449.84;5054495;28;19919;-65
2023/05/01 04:22:06;;;;;;;;;;;;;;;11.25;70.64;101451.50;5057891;28;19913;-65
2023/05/01 04:24:31;;;;;;;;;;;;;;;11.25;70.29;101444.34;5054670;28;19917;-65
2023/05/01 04:26:57;;;;;;;;;;;;;;;11.25;70.18;101441.69;5063999;28;20292;-65
2023/05/01 04:29:22;;;;;;;;;;;;;;;11.25;70.45;101443.53;5061837;28;19917;-65
2023/05/01 04:31:47;;;;;;;;;;;;;;;11.25;70.15;101440.88;5054730;28;19912;-65
2023/05/01 04:34:13;;;;;;;;;;;;;;;11.25;70.04;101441.69;5069135;28;19932;-65
2023/05/01 04:36:38;;;;;;;;;;;;;;;11.27;70.16;101441.53;5069757;28;19913;-65
2023/05/01 04:39:04;;;;;;;;;;;;;;;11.26;70.03;101438.03;5068252;28;19931;-65
2023/05/01 04:41:29;;;;;;;;;;;;;;;11.26;70.42;101440.69;5060852;28;19959;-65
2023/05/01 04:43:54;;;;;;;;;;;;;;;11.25;70.03;101443.53;5067393;28;19917;-65
2023/05/01 04:46:19;;;;;;;;;;;;;;;11.25;70.27;101444.34;5068565;28;19917;-65
2023/05/01 04:48:44;;;;;;;;;;;;;;;11.25;70.36;101447.00;5059652;28;19917;-65
2023/05/01 04:51:10;;;;;;;;;;;;;;;11.24;70.53;101447.19;5064572;28;20417;-65
2023/05/01 04:53:35;;;;;;;;;;;;;;;11.26;70.28;101445.19;5060471;28;19925;-65
2023/05/01 04:56:01;;;;;;;;;;;;;;;11.25;70.23;101441.69;5064137;28;19924;-65
2023/05/01 04:58:26;;;;;;;;;;;;;;;11.25;70.29;101443.53;5065024;28;20534;-65
2023/05/01 05:00:51;;;;;;;;;;;;;;;11.24;70.84;101442.69;5054048;28;20298;-65
2023/05/01 05:03:17;;;;;;;;;;;;;;;11.26;70.75;101442.53;5062807;28;19947;-65
2023/05/01 05:05:43;;;;;;;;;;;;;;;11.24;70.46;101450.66;5063952;28;19977;-65
2023/05/01 05:08:08;;;;;;;;;;;;;;;11.21;70.46;101437.69;5067520;28;20356;-65
2023/05/01 05:10:33;;;;;;;;;;;;;;;11.22;70.85;101444.69;5062957;28;19924;-65
2023/05/01 05:12:58;;;;;;;;;;;;;;;11.24;71.12;101439.19;5064340;28;20002;-65
2023/05/01 05:15:23;;;;;;;;;;;;;;;11.25;71.33;101439.03;5063934;28;20351;-65
2023/05/01 05:17:49;;;;;;;;;;;;;;;11.24;71.74;101434.72;5066510;28;19923;-65
2023/05/01 05:20:14;;;;;;;;;;;;;;;11.22;71.76;101436.69;5065226;28;19920;-65
2023/05/01 05:22:39;;;;;;;;;;;;;;;11.24;71.83;101441.84;5067022;28;19931;-65
2023/05/01 05:25:05;;;;;;;;;;;;;;;11.26;72.38;101432.72;5067599;28;19913;-65
2023/05/01 05:27:35;;;;;;;;;;;;;;;11.27;72.49;101434.38;5066532;28;20050;-65
2023/05/01 05:30:00;;;;;;;;;;;;;;;11.27;72.12;101437.06;5066575;28;20403;-65
2023/05/01 05:32:25;;;;;;;;;;;;;;;11.26;72.31;101446.03;5062872;28;19987;-65
2023/05/01 05:34:50;;;;;;;;;;;;;;;11.24;72.58;101437.38;5063829;28;19965;-65
2023/05/01 05:37:16;;;;;;;;;;;;;;;11.27;72.47;101436.22;5067487;28;19916;-65
2023/05/01 05:39:41;;;;;;;;;;;;;;;11.30;72.96;101439.41;5068588;28;20017;-65
2023/05/01 05:42:06;;;;;;;;;;;;;;;11.33;72.69;101444.41;5066109;28;19916;-65
2023/05/01 05:44:34;;;;;;;;;;;;;;;11.37;72.79;101436.94;5066014;28;19942;-66
2023/05/01 05:46:59;;;;;;;;;;;;;;;11.37;72.77;101435.13;5062908;28;19928;-65
2023/05/01 05:49:25;;;;;;;;;;;;;;;11.39;72.54;101434.94;5068499;28;19912;-65
2023/05/01 05:51:50;;;;;;;;;;;;;;;11.43;72.84;101430.97;5068512;28;19916;-65
2023/05/01 05:54:15;;;;;;;;;;;;;;;11.44;72.78;101432.63;5068353;28;20000;-65
2023/05/01 05:56:41;;;;;;;;;;;;;;;11.46;72.61;101434.13;5066389;28;19940;-65
2023/05/01 05:59:07;;;;;;;;;;;;;;;11.47;72.11;101433.13;5062546;28;19922;-65
2023/05/01 06:01:32;;;;;;;;;;;;;;;11.49;72.32;101431.16;5066111;28;19920;-65
2023/05/01 06:03:57;;;;;;;;;;;;;;;11.56;72.18;101422.50;5062868;28;20408;-65
2023/05/01 06:06:23;;;;;;;;;;;;;;;11.62;72.03;101427.22;5055536;28;19919;-65
2023/05/01 06:08:48;;;;;;;;;;;;;;;11.67;71.97;101419.56;5066790;28;19920;-65
2023/05/01 06:11:13;;;;;;;;;;;;;;;11.74;71.82;101428.56;5066226;28;19924;-65
2023/05/01 06:13:38;;;;;;;;;;;;;;;11.80;71.79;101435.91;5057146;28;19924;-65
2023/05/01 06:16:04;;;;;;;;;;;;;;;11.83;71.55;101426.75;5060407;28;20064;-65
2023/05/01 06:18:29;;;;;;;;;;;;;;;11.81;70.60;101431.41;5058125;28;19917;-65
2023/05/01 06:20:54;;;;;;;;;;;;;;;11.79;70.87;101427.09;5060717;28;19921;-67
2023/05/01 06:23:19;;;;;;;;;;;;;;;11.81;70.69;101426.09;5054658;28;19964;-65
2023/05/01 06:25:45;;;;;;;;;;;;;;;11.87;70.75;101428.13;5061629;28;19921;-65
2023/05/01 06:28:10;;;;;;;;;;;;;;;11.93;71.00;101425.63;5060647;28;20043;-65
2023/05/01 06:30:35;;;;;;;;;;;;;;;11.99;71.24;101432.94;5063068;28;19924;-65
2023/05/01 06:33:01;;;;;;;;;;;;;;;12.04;71.13;101427.13;5056266;28;19917;-65
2023/05/01 06:35:26;;;;;;;;;;;;;;;12.11;71.35;101428.13;5060874;28;19921;-65
2023/05/01 06:37:51;;;;;;;;;;;;;;;12.16;71.17;101427.63;5057807;28;20385;-65
2023/05/01 06:40:17;;;;;;;;;;;;;;;12.21;71.08;101423.47;5054071;28;20019;-65
2023/05/01 06:42:42;;;;;;;;;;;;;;;12.28;71.04;101428.97;5057720;28;19932;-65
2023/05/01 06:45:07;;;;;;;;;;;;;;;12.32;70.57;101427.63;5062666;28;20050;-65
2023/05/01 06:47:32;;;;;;;;;;;;;;;12.35;70.34;101422.78;5054871;28;19924;-65
2023/05/01 06:49:58;;;;;;;;;;;;;;;12.38;70.10;101413.63;5064651;28;19973;-65
2023/05/01 06:52:23;;;;;;;;;;;;;;;12.44;70.31;101418.31;5066932;28;20321;-65
2023/05/01 06:54:48;;;;;;;;;;;;;;;12.51;70.37;101416.63;5057641;28;19929;-65
2023/05/01 06:57:13;;;;;;;;;;;;;;;12.56;70.12;101422.25;5061359;28;19927;-65
2023/05/01 06:59:39;;;;;;;;;;;;;;;12.62;70.03;101416.25;5061351;28;20404;-65
2023/05/01 07:02:04;;;;;;;;;;;;;;;12.70;70.16;101410.06;5061623;28;19923;-65
2023/05/01 07:04:30;;;;;;;;;;;;;;;12.76;70.00;101416.56;5060665;28;19970;-65
2023/05/01 07:06:55;;;;;;;;;;;;;;;12.81;69.50;101422.22;5056897;28;19950;-65
2023/05/01 07:09:20;;;;;;;;;;;;;;;12.85;69.23;101418.22;5070759;28;19924;-65
2023/05/01 07:11:46;;;;;;;;;;;;;;;12.92;69.24;101408.50;5062914;28;19960;-65
2023/05/01 07:14:11;;;;;;;;;;;;;;;12.96;68.92;101410.66;5060995;28;19936;-65
2023/05/01 07:16:36;;;;;;;;;;;;;;;13.01;69.03;101412.84;5061830;28;20344;-65
2023/05/01 07:19:01;;;;;;;;;;;;;;;13.04;68.48;101417.81;5066613;28;20003;-65
2023/05/01 07:21:26;;;;;;;;;;;;;;;13.09;68.91;101412.78;5065680;28;20059;-65
2023/05/01 07:23:52;;;;;;;;;;;;;;;13.13;68.67;101411.44;5066853;28;19947;-65
2023/05/01 07:26:17;;;;;;;;;;;;;;;13.16;68.51;101413.75;5064946;28;19982;-65
2023/05/01 07:28:42;;;;;;;;;;;;;;;13.23;68.92;101419.25;5068643;28;19931;-65
2023/05/01 07:31:10;;;;;;;;;;;;;;;13.30;68.63;101417.56;5071373;28;19995;-65
2023/05/01 07:33:36;;;;;;;;;;;;;;;13.33;68.11;101422.56;5067304;28;19927;-65
2023/05/01 07:36:02;;;;;;;;;;;;;;;13.41;68.42;101416.34;5065705;28;19924;-65
2023/05/01 07:38:27;;;;;;;;;;;;;;;13.48;68.24;101419.97;5063120;28;20013;-66
2023/05/01 07:40:52;;;;;;;;;;;;;;;13.55;68.12;101419.09;5070128;28;20480;-65
2023/05/01 07:43:17;;;;;;;;;;;;;;;13.63;67.30;101410.22;5063934;28;19956;-65
2023/05/01 07:45:52;;;;;;;;;;;;;;;13.69;67.01;101414.84;5070574;28;20042;-65
2023/05/01 07:48:17;;;;;;;;;;;;;;;13.75;66.70;101413.31;5070850;28;19919;-65
2023/05/01 07:50:43;;;;;;;;;;;;;;;13.81;66.64;101415.25;5070379;28;19920;-65
2023/05/01 07:53:08;;;;;;;;;;;;;;;13.87;66.80;101417.22;5070191;28;19982;-65
2023/05/01 07:55:33;;;;;;;;;;;;;;;13.94;66.23;101427.03;5066063;28;20378;-66
2023/05/01 07:57:58;;;;;;;;;;;;;;;14.04;66.24;101424.09;5062474;28;19912;-65
2023/05/01 08:00:23;;;;;;;;;;;;;;;14.15;66.26;101430.84;5064192;28;19927;-65
2023/05/01 08:02:50;;;;;;;;;;;;;;;14.19;65.79;101425.00;5068838;28;19971;-65
2023/05/01 08:05:15;;;;;;;;;;;;;;;14.12;65.21;101423.19;5066628;28;20062;-65
2023/05/01 08:07:40;;;;;;;;;;;;;;;14.03;64.86;101426.94;5068393;28;20480;-66
2023/05/01 08:10:06;;;;;;;;;;;;;;;13.95;64.93;101427.84;5065748;28;19917;-65
2023/05/01 08:12:31;;;;;;;;;;;;;;;13.97;64.99;101425.84;5069160;28;19923;-65
2023/05/01 08:14:56;;;;;;;;;;;;;;;14.03;64.80;101413.59;5069879;28;20005;-65
2023/05/01 08:17:23;;;;;;;;;;;;;;;14.08;64.84;101425.41;5058557;28;22345;-65
2023/05/01 08:19:49;;;;;;;;;;;;;;;14.15;64.96;101428.19;5060091;28;19913;-66
2023/05/01 08:22:14;;;;;;;;;;;;;;;14.18;64.76;101418.00;5065072;28;19924;-66
2023/05/01 08:24:41;;;;;;;;;;;;;;;14.26;64.82;101417.09;5070410;28;20031;-65
2023/05/01 08:27:07;;;;;;;;;;;;;;;14.35;64.80;101418.66;5070116;28;19912;-66
2023/05/01 08:29:33;;;;;;;;;;;;;;;14.50;65.33;101419.56;5069694;28;19955;-66
2023/05/01 08:31:58;;;;;;;;;;;;;;;14.69;65.14;101410.16;5068660;28;19978;-65
2023/05/01 08:34:23;;;;;;;;;;;;;;;14.77;64.08;101411.94;5069687;28;19923;-65
2023/05/01 08:36:48;;;;;;;;;;;;;;;14.78;63.91;101418.94;5063658;28;19968;-66
2023/05/01 08:39:14;;;;;;;;;;;;;;;14.83;63.34;101408.53;5064869;28;19917;-65
2023/05/01 08:41:39;;;;;;;;;;;;;;;14.87;63.65;101416.00;5068166;28;19920;-66
2023/05/01 08:44:05;;;;;;;;;;;;;;;14.92;63.29;101415.44;5070305;28;19912;-65
2023/05/01 08:46:37;;;;;;;;;;;;;;;14.91;63.11;101416.44;5058691;28;20271;-66
2023/05/01 08:49:04;;;;;;;;;;;;;;;14.88;63.05;101411.47;5061346;28;19921;-65
2023/05/01 08:51:30;;;;;;;;;;;;;;;14.88;62.98;101409.63;5058186;28;19919;-66
2023/05/01 08:53:57;;;;;;;;;;;;;;;14.88;63.08;101417.66;5066014;28;20334;-65
2023/05/01 08:56:22;;;;;;;;;;;;;;;14.90;63.21;101420.13;5054417;28;19916;-66
2023/05/01 08:58:48;;;;;;;;;;;;;;;14.96;63.40;101422.06;5069947;28;20396;-65
2023/05/01 09:01:14;;;;;;;;;;;;;;;15.05;63.18;101412.13;5069350;28;19963;-65
2023/05/01 09:03:39;;;;;;;;;;;;;;;15.16;63.57;101417.00;5069598;28;20385;-66
2023/05/01 09:06:05;;;;;;;;;;;;;;;15.30;63.34;101417.97;5064598;28;20009;-66
2023/05/01 09:08:30;;;;;;;;;;;;;;;15.42;63.73;101421.84;5057995;28;19917;-65
2023/05/01 09:10:56;;;;;;;;;;;;;;;15.41;63.24;101414.81;5064904;28;19919;-65
2023/05/01 09:13:21;;;;;;;;;;;;;;;15.57;63.46;101422.63;5067266;28;20328;-65
2023/05/01 09:15:47;;;;;;;;;;;;;;;15.73;62.90;101416.25;5068547;28;20001;-65
2023/05/01 09:18:12;;;;;;;;;;;;;;;15.82;62.60;101414.25;5066883;28;19917;-66
2023/05/01 09:20:37;;;;;;;;;;;;;;;15.96;62.89;101418.75;5069574;28;20284;-66
2023/05/01 09:23:02;;;;;;;;;;;;;;;16.18;62.80;101423.03;5067144;28;20026;-66
2023/05/01 09:25:28;;;;;;;;;;;;;;;16.28;62.18;101412.00;5069100;28;19916;-65
2023/05/01 09:27:54;;;;;;;;;;;;;;;16.50;62.41;101407.44;5067806;28;20061;-66
2023/05/01 09:30:31;;;;;;;;;;;;;;;16.65;61.94;101413.50;5067810;28;19931;-65
2023/05/01 09:33:13;;;;;;;;;;;;;;;16.88;62.07;101408.75;5068662;28;20011;-66
2023/05/01 09:35:48;;;;;;;;;;;;;;;17.18;60.19;101405.78;5064044;28;20500;-66
2023/05/01 09:38:16;;;;;;;;;;;;;;;17.22;60.50;101407.03;5068375;28;19912;-66
2023/05/01 09:40:41;;;;;;;;;;;;;;;17.45;60.52;101412.91;5060018;28;19919;-66
2023/05/01 09:43:07;;;;;;;;;;;;;;;17.68;60.41;101403.72;5067558;28;19916;-66
2023/05/01 09:45:32;;;;;;;;;;;;;;;17.87;60.08;101409.09;5060857;28;19932;-66
2023/05/01 09:48:09;;;;;;;;;;;;;;;18.00;59.78;101408.31;5064143;28;19920;-66
2023/05/01 09:50:34;;;;;;;;;;;;;;;18.09;59.50;101412.44;5063003;28;19920;-66
2023/05/01 09:53:00;;;;;;;;;;;;;;;18.09;57.97;101412.44;5053924;28;19924;-66
2023/05/01 09:55:25;;;;;;;;;;;;;;;17.99;57.00;101413.91;5062222;28;20324;-66
2023/05/01 09:57:51;;;;;;;;;;;;;;;17.89;57.38;101415.09;5054147;28;20447;-65
2023/05/01 10:00:19;;;;;;;;;;;;;;;17.74;57.55;101419.84;5059654;28;19917;-66
2023/05/01 10:02:45;;;;;;;;;;;;;;;17.61;57.39;101420.59;5060396;28;20378;-66
2023/05/01 10:05:11;;;;;;;;;;;;;;;17.63;57.01;101423.06;5057803;28;19923;-66
2023/05/01 10:07:37;;;;;;;;;;;;;;;17.62;56.45;101421.41;5058137;28;19951;-66
2023/05/01 10:10:15;;;;;;;;;;;;;;;17.59;56.49;101417.28;5059324;28;19916;-66
2023/05/01 10:12:41;;;;;;;;;;;;;;;17.60;57.03;101418.94;5057340;28;19924;-66
2023/05/01 10:15:06;;;;;;;;;;;;;;;17.64;56.95;101425.59;5057796;28;19928;-66
2023/05/01 10:17:32;;;;;;;;;;;;;;;17.63;56.45;101418.53;5058011;28;20333;-66
2023/05/01 10:19:57;;;;;;;;;;;;;;;17.62;56.61;101424.09;5051160;28;19978;-66
2023/05/01 10:22:23;;;;;;;;;;;;;;;17.59;56.72;101427.19;5053628;28;19946;-66
2023/05/01 10:24:49;;;;;;;;;;;;;;;17.58;56.48;101429.06;5065351;28;19975;-66
2023/05/01 10:27:16;;;;;;;;;;;;;;;17.64;57.09;101432.81;5058806;28;20429;-66
2023/05/01 10:29:41;;;;;;;;;;;;;;;17.80;57.77;101431.63;5056616;28;19913;-66
2023/05/01 10:32:07;;;;;;;;;;;;;;;17.93;57.99;101434.34;5056469;28;19912;-66
2023/05/01 10:34:50;;;;;;;;;;;;;;;18.06;57.91;101439.75;5054172;28;19966;-66
2023/05/01 10:37:18;;;;;;;;;;;;;;;18.16;57.42;101429.41;5052218;28;20374;-66
2023/05/01 10:39:43;;;;;;;;;;;;;;;18.18;56.81;101427.31;5051561;28;19913;-66
2023/05/01 10:42:15;;;;;;;;;;;;;;;18.26;56.76;101431.69;5055564;28;19958;-66
2023/05/01 10:44:41;;;;;;;;;;;;;;;18.39;57.12;101428.16;5057572;28;19920;-66
2023/05/01 10:47:29;;;;;;;;;;;;;;;18.52;56.78;101431.69;5060650;28;19996;-66
2023/05/01 10:50:05;;;;;;;;;;;;;;;18.73;56.74;101432.50;5056853;28;19969;-66
2023/05/01 10:52:51;;;;;;;;;;;;;;;18.81;55.29;101441.19;5058745;28;20561;-66
2023/05/01 10:55:35;;;;;;;;;;;;;;;18.84;54.76;101439.94;5060150;28;20293;-67
2023/05/01 10:58:00;;;;;;;;;;;;;;;18.93;55.11;101440.53;5065263;28;20446;-67
2023/05/01 11:00:25;;;;;;;;;;;;;;;19.03;54.53;101435.53;5059970;28;19958;-66
2023/05/01 11:02:51;;;;;;;;;;;;;;;19.08;53.96;101433.03;5059872;28;19940;-66
2023/05/01 11:05:16;;;;;;;;;;;;;;;19.10;53.43;101441.75;5065561;28;19913;-66
2023/05/01 11:07:41;;;;;;;;;;;;;;;19.13;53.65;101436.75;5060096;28;20039;-66
2023/05/01 11:10:24;;;;;;;;;;;;;;;19.07;53.39;101437.59;5046861;28;19913;-66
2023/05/01 11:12:50;;;;;;;;;;;;;;;19.03;53.64;101435.53;5059512;28;20389;-66
2023/05/01 11:15:25;;;;;;;;;;;;;;;19.01;52.45;101432.22;5065173;28;19927;-66
2023/05/01 11:17:51;;;;;;;;;;;;;;;19.00;52.76;101434.09;5057926;28;19912;-66
2023/05/01 11:20:22;;;;;;;;;;;;;;;19.04;52.45;101431.81;5066485;28;19920;-66
2023/05/01 11:22:49;;;;;;;;;;;;;;;19.11;52.78;101433.47;5064577;28;19970;-66
2023/05/01 11:25:19;;;;;;;;;;;;;;;19.24;52.67;101437.97;5061917;28;19923;-66
2023/05/01 11:27:48;;;;;;;;;;;;;;;19.39;53.09;101435.00;5066048;28;19927;-66
2023/05/01 11:30:13;;;;;;;;;;;;;;;19.53;53.11;101439.31;5066973;28;19918;-66
2023/05/01 11:32:41;;;;;;;;;;;;;;;19.65;52.51;101447.53;5067153;28;19931;-66
2023/05/01 11:35:07;;;;;;;;;;;;;;;19.75;52.46;101446.03;5065512;28;19974;-66
2023/05/01 11:37:39;;;;;;;;;;;;;;;19.81;52.14;101444.34;5060417;28;19952;-66
2023/05/01 11:40:17;;;;;;;;;;;;;;;19.78;51.88;101442.09;5063896;28;19957;-66
2023/05/01 11:42:42;;;;;;;;;;;;;;;19.89;51.07;101449.47;5066974;28;19913;-66
2023/05/01 11:45:09;;;;;;;;;;;;;;;19.92;51.51;101453.59;5062320;28;20011;-66
2023/05/01 11:47:35;;;;;;;;;;;;;;;20.06;51.67;101450.59;5066738;28;19927;-66
2023/05/01 11:50:00;;;;;;;;;;;;;;;20.24;51.83;101459.81;5065919;28;19916;-66
2023/05/01 11:52:26;;;;;;;;;;;;;;;20.24;51.66;101454.41;5067903;28;19913;-66
2023/05/01 11:54:51;;;;;;;;;;;;;;;20.25;51.28;101458.78;5070355;28;19916;-66
2023/05/01 11:57:18;;;;;;;;;;;;;;;20.28;50.43;101459.16;5067349;28;19912;-66
2023/05/01 11:59:45;;;;;;;;;;;;;;;20.38;50.71;101451.41;5070116;28;20011;-66
2023/05/01 12:02:19;;;;;;;;;;;;;;;20.50;50.35;101453.41;5070961;28;20008;-66
2023/05/01 12:04:45;;;;;;;;;;;;;;;20.42;49.21;101465.31;5069440;28;20015;-66
2023/05/01 12:07:22;;;;;;;;;;;;;;;20.36;49.95;101461.59;5068752;28;20449;-66
2023/05/01 12:09:48;;;;;;;;;;;;;;;20.38;49.75;101455.97;5060298;28;20334;-66
2023/05/01 12:12:14;;;;;;;;;;;;;;;20.40;49.63;101456.59;5059659;28;20560;-66
2023/05/01 12:14:39;;;;;;;;;;;;;;;20.50;49.51;101453.41;5067276;28;20881;-66
2023/05/01 12:17:05;;;;;;;;;;;;;;;20.63;49.77;101458.69;5066384;28;19925;-66
2023/05/01 12:19:30;;;;;;;;;;;;;;;20.80;49.53;101457.06;5070778;28;20395;-66
2023/05/01 12:22:05;;;;;;;;;;;;;;;20.99;49.19;101458.72;5067651;28;19958;-66
2023/05/01 12:24:31;;;;;;;;;;;;;;;21.09;48.64;101454.69;5065649;28;19964;-66
2023/05/01 12:27:00;;;;;;;;;;;;;;;21.19;47.95;101453.13;5067326;28;20346;-66
2023/05/01 12:29:25;;;;;;;;;;;;;;;21.36;47.60;101449.81;5066550;28;20408;-66
2023/05/01 12:31:51;;;;;;;;;;;;;;;21.49;47.68;101452.38;5066407;28;19913;-66
2023/05/01 12:34:16;;;;;;;;;;;;;;;21.60;46.16;101457.00;5070915;28;19912;-66